sensor_id;sensor_type;location;lat;lon;timestamp;pressure;altitude;pressure_sealevel;temperature;humidity
12897;BME280;6516;35.028;32.372;2023-02-26T00:01:27;100581.31;;;10.11;100.00
12897;BME280;6516;35.028;32.372;2023-02-26T00:03:59;100576.00;;;10.14;100.00
12897;BME280;6516;35.028;32.372;2023-02-26T00:06:30;100575.97;;;10.17;100.00
12897;BME280;6516;35.028;32.372;2023-02-26T00:08:58;100577.72;;;10.18;100.00
12897;BME280;6516;35.028;32.372;2023-02-26T00:11:28;100575.06;;;10.24;100.00
12897;BME280;6516;35.028;32.372;2023-02-26T00:13:56;100572.38;;;10.27;100.00
12897;BME280;6516;35.028;32.372;2023-02-26T00:16:26;100573.16;;;10.35;100.00
12897;BME280;6516;35.028;32.372;2023-02-26T00:18:57;100579.31;;;10.34;100.00
12897;BME280;6516;35.028;32.372;2023-02-26T00:21:27;100577.56;;;10.33;100.00
12897;BME280;6516;35.028;32.372;2023-02-26T00:23:55;100575.81;;;10.31;100.00
12897;BME280;6516;35.028;32.372;2023-02-26T00:26:24;100581.16;;;10.26;100.00
12897;BME280;6516;35.028;32.372;2023-02-26T00:28:55;100580.25;;;10.30;100.00
12897;BME280;6516;35.028;32.372;2023-02-26T00:31:24;100580.22;;;10.32;100.00
12897;BME280;6516;35.028;32.372;2023-02-26T00:33:53;100573.16;;;10.35;100.00
12897;BME280;6516;35.028;32.372;2023-02-26T00:36:24;100574.00;;;10.37;100.00
12897;BME280;6516;35.028;32.372;2023-02-26T00:39:06;100571.41;;;10.36;100.00
12897;BME280;6516;35.028;32.372;2023-02-26T00:41:40;100573.16;;;10.37;100.00
12897;BME280;6516;35.028;32.372;2023-02-26T00:44:10;100569.72;;;10.32;100.00
12897;BME280;6516;35.028;32.372;2023-02-26T00:46:44;100569.66;;;10.33;100.00
12897;BME280;6516;35.028;32.372;2023-02-26T00:49:22;100569.78;;;10.24;100.00
12897;BME280;6516;35.028;32.372;2023-02-26T00:51:56;100575.22;;;10.05;100.00
12897;BME280;6516;35.028;32.372;2023-02-26T00:54:27;100561.25;;;9.94;100.00
12897;BME280;6516;35.028;32.372;2023-02-26T00:56:57;100569.22;;;9.86;100.00
12897;BME280;6516;35.028;32.372;2023-02-26T00:59:26;100560.50;;;9.80;100.00
12897;BME280;6516;35.028;32.372;2023-02-26T01:01:54;100567.53;;;9.79;100.00
12897;BME280;6516;35.028;32.372;2023-02-26T01:04:23;100566.59;;;9.85;100.00
12897;BME280;6516;35.028;32.372;2023-02-26T01:06:54;100557.00;;;9.79;100.00
12897;BME280;6516;35.028;32.372;2023-02-26T01:09:25;100566.72;;;9.65;100.00
12897;BME280;6516;35.028;32.372;2023-02-26T01:11:57;100560.56;;;9.72;100.00
12897;BME280;6516;35.028;32.372;2023-02-26T01:14:29;100551.78;;;9.73;100.00
12897;BME280;6516;35.028;32.372;2023-02-26T01:17:01;100559.59;;;9.81;100.00
12897;BME280;6516;35.028;32.372;2023-02-26T01:19:37;100557.84;;;9.84;100.00
12897;BME280;6516;35.028;32.372;2023-02-26T01:22:14;100547.25;;;9.93;100.00
12897;BME280;6516;35.028;32.372;2023-02-26T01:24:45;100550.81;;;9.85;100.00
12897;BME280;6516;35.028;32.372;2023-02-26T01:27:15;100548.31;;;9.71;100.00
12897;BME280;6516;35.028;32.372;2023-02-26T01:29:45;100550.13;;;9.63;100.00
12897;BME280;6516;35.028;32.372;2023-02-26T01:32:17;100552.72;;;9.66;100.00
12897;BME280;6516;35.028;32.372;2023-02-26T01:34:51;100558.91;;;9.62;100.00
12897;BME280;6516;35.028;32.372;2023-02-26T01:37:28;100556.22;;;9.67;100.00
12897;BME280;6516;35.028;32.372;2023-02-26T01:43:02;100551.84;;;9.69;100.00
12897;BME280;6516;35.028;32.372;2023-02-26T01:45:41;100551.78;;;9.75;100.00
12897;BME280;6516;35.028;32.372;2023-02-26T01:48:33;100557.94;;;9.72;100.00
12897;BME280;6516;35.028;32.372;2023-02-26T01:51:04;100551.06;;;9.55;100.00
12897;BME280;6516;35.028;32.372;2023-02-26T01:53:32;100558.06;;;9.57;100.00
12897;BME280;6516;35.028;32.372;2023-02-26T01:56:02;100562.41;;;9.60;100.00
12897;BME280;6516;35.028;32.372;2023-02-26T01:58:35;100556.22;;;9.65;100.00
12897;BME280;6516;35.028;32.372;2023-02-26T02:01:05;100560.56;;;9.69;100.00
12897;BME280;6516;35.028;32.372;2023-02-26T02:03:37;100550.88;;;9.76;100.00
12897;BME280;6516;35.028;32.372;2023-02-26T02:06:07;100550.88;;;9.79;100.00
12897;BME280;6516;35.028;32.372;2023-02-26T02:08:37;100557.03;;;9.76;100.00
12897;BME280;6516;35.028;32.372;2023-02-26T02:11:07;100557.00;;;9.79;100.00
12897;BME280;6516;35.028;32.372;2023-02-26T02:13:48;100563.06;;;9.89;100.00
12897;BME280;6516;35.028;32.372;2023-02-26T02:16:36;100562.28;;;9.76;100.00
12897;BME280;6516;35.028;32.372;2023-02-26T02:19:27;100555.31;;;9.72;100.00
12897;BME280;6516;35.028;32.372;2023-02-26T02:25:25;100550.97;;;9.65;100.00
12897;BME280;6516;35.028;32.372;2023-02-26T02:28:11;100553.50;;;9.77;100.00
12897;BME280;6516;35.028;32.372;2023-02-26T02:31:01;100560.56;;;9.75;100.00
12897;BME280;6516;35.028;32.372;2023-02-26T02:33:39;100555.25;;;9.78;100.00
12897;BME280;6516;35.028;32.372;2023-02-26T02:36:12;100552.66;;;9.74;100.00
12897;BME280;6516;35.028;32.372;2023-02-26T02:38:46;100557.09;;;9.64;100.00
12897;BME280;6516;35.028;32.372;2023-02-26T02:41:19;100552.75;;;9.65;100.00
12897;BME280;6516;35.028;32.372;2023-02-26T02:43:51;100567.69;;;9.55;100.00
12897;BME280;6516;35.028;32.372;2023-02-26T02:46:25;100567.69;;;9.55;100.00
12897;BME280;6516;35.028;32.372;2023-02-26T02:48:59;100561.53;;;9.61;100.00
12897;BME280;6516;35.028;32.372;2023-02-26T02:51:32;100561.47;;;9.67;100.00
12897;BME280;6516;35.028;32.372;2023-02-26T02:54:04;100562.38;;;9.64;100.00
12897;BME280;6516;35.028;32.372;2023-02-26T02:56:37;100571.13;;;9.66;100.00
12897;BME280;6516;35.028;32.372;2023-02-26T02:59:14;100567.56;;;9.72;100.00
12897;BME280;6516;35.028;32.372;2023-02-26T03:01:48;100564.03;;;9.77;100.00
12897;BME280;6516;35.028;32.372;2023-02-26T03:04:23;100563.13;;;9.81;100.00
12897;BME280;6516;35.028;32.372;2023-02-26T03:06:51;100565.75;;;9.83;100.00
12897;BME280;6516;35.028;32.372;2023-02-26T03:09:19;100570.13;;;9.82;100.00
12897;BME280;6516;35.028;32.372;2023-02-26T03:11:47;100567.47;;;9.85;100.00
12897;BME280;6516;35.028;32.372;2023-02-26T03:14:14;100569.19;;;9.89;100.00
12897;BME280;6516;35.028;32.372;2023-02-26T03:17:06;100571.81;;;9.91;100.00
12897;BME280;6516;35.028;32.372;2023-02-26T03:19:47;100569.19;;;9.91;100.00
12897;BME280;6516;35.028;32.372;2023-02-26T03:22:25;100571.81;;;9.89;100.00
12897;BME280;6516;35.028;32.372;2023-02-26T03:25:04;100570.91;;;9.92;100.00
12897;BME280;6516;35.028;32.372;2023-02-26T03:27:39;100570.84;;;9.99;100.00
12897;BME280;6516;35.028;32.372;2023-02-26T03:30:15;100579.59;;;10.07;100.00
12897;BME280;6516;35.028;32.372;2023-02-26T03:32:51;100580.47;;;10.06;100.00
12897;BME280;6516;35.028;32.372;2023-02-26T03:35:26;100587.50;;;10.00;100.00
12897;BME280;6516;35.028;32.372;2023-02-26T03:38:02;100581.38;;;9.96;100.00
12897;BME280;6516;35.028;32.372;2023-02-26T03:40:36;100588.50;;;9.87;100.00
12897;BME280;6516;35.028;32.372;2023-02-26T03:43:10;100585.88;;;9.82;100.00
12897;BME280;6516;35.028;32.372;2023-02-26T03:45:41;100595.66;;;9.65;100.00
12897;BME280;6516;35.028;32.372;2023-02-26T03:48:17;100592.19;;;9.60;100.00
12897;BME280;6516;35.028;32.372;2023-02-26T03:50:48;100593.06;;;9.61;100.00
12897;BME280;6516;35.028;32.372;2023-02-26T03:53:21;100595.81;;;9.46;100.00
12897;BME280;6516;35.028;32.372;2023-02-26T03:55:56;100607.31;;;9.21;100.00
12897;BME280;6516;35.028;32.372;2023-02-26T03:58:26;100595.03;;;9.26;100.00
12897;BME280;6516;35.028;32.372;2023-02-26T04:00:58;100601.97;;;9.36;100.00
12897;BME280;6516;35.028;32.372;2023-02-26T04:03:34;100604.59;;;9.40;100.00
12897;BME280;6516;35.028;32.372;2023-02-26T04:06:05;100612.53;;;9.34;100.00
12897;BME280;6516;35.028;32.372;2023-02-26T04:08:33;100605.50;;;9.33;100.00
12897;BME280;6516;35.028;32.372;2023-02-26T04:11:05;100609.00;;;9.37;100.00
12897;BME280;6516;35.028;32.372;2023-02-26T04:13:36;100608.97;;;9.43;100.00
12897;BME280;6516;35.028;32.372;2023-02-26T04:16:04;100610.69;;;9.47;100.00
12897;BME280;6516;35.028;32.372;2023-02-26T04:18:33;100611.53;;;9.50;100.00
12897;BME280;6516;35.028;32.372;2023-02-26T04:21:01;100603.59;;;9.61;100.00
12897;BME280;6516;35.028;32.372;2023-02-26T04:23:29;100608.00;;;9.53;100.00
12897;BME280;6516;35.028;32.372;2023-02-26T04:25:57;100606.28;;;9.49;100.00
12897;BME280;6516;35.028;32.372;2023-02-26T04:28:25;100610.69;;;9.47;100.00
12897;BME280;6516;35.028;32.372;2023-02-26T04:30:52;100616.78;;;9.50;100.00
12897;BME280;6516;35.028;32.372;2023-02-26T04:33:20;100609.84;;;9.43;100.00
12897;BME280;6516;35.028;32.372;2023-02-26T04:35:50;100617.78;;;9.27;100.00
12897;BME280;6516;35.028;32.372;2023-02-26T04:38:18;100620.47;;;9.19;100.00
12897;BME280;6516;35.028;32.372;2023-02-26T04:40:46;100622.19;;;9.29;100.00
12897;BME280;6516;35.028;32.372;2023-02-26T04:43:15;100618.56;;;9.47;100.00
12897;BME280;6516;35.028;32.372;2023-02-26T04:45:44;100620.25;;;9.55;100.00
12897;BME280;6516;35.028;32.372;2023-02-26T04:48:12;100620.19;;;9.66;100.00
12897;BME280;6516;35.028;32.372;2023-02-26T04:50:40;100618.50;;;9.59;100.00
12897;BME280;6516;35.028;32.372;2023-02-26T04:53:10;100634.22;;;9.62;100.00
12897;BME280;6516;35.028;32.372;2023-02-26T04:55:38;100636.03;;;9.55;100.00
12897;BME280;6516;35.028;32.372;2023-02-26T04:58:06;100628.97;;;9.65;100.00
12897;BME280;6516;35.028;32.372;2023-02-26T05:00:35;100629.81;;;9.70;100.00
12897;BME280;6516;35.028;32.372;2023-02-26T05:03:02;100625.31;;;9.82;100.00
12897;BME280;6516;35.028;32.372;2023-02-26T05:05:30;100635.78;;;9.94;100.00
12897;BME280;6516;35.028;32.372;2023-02-26T05:07:58;100620.81;;;9.98;100.00
12897;BME280;6516;35.028;32.372;2023-02-26T05:10:27;100635.72;;;10.00;100.00
12897;BME280;6516;35.028;32.372;2023-02-26T05:12:55;100639.13;;;10.13;100.00
12897;BME280;6516;35.028;32.372;2023-02-26T05:15:23;100643.53;;;10.14;100.00
12897;BME280;6516;35.028;32.372;2023-02-26T05:17:50;100653.19;;;10.10;100.00
12897;BME280;6516;35.028;32.372;2023-02-26T05:20:19;100660.09;;;10.26;100.00
12897;BME280;6516;35.028;32.372;2023-02-26T05:22:47;100657.31;;;10.44;100.00
12897;BME280;6516;35.028;32.372;2023-02-26T05:25:15;100663.22;;;10.67;100.00
12897;BME280;6516;35.028;32.372;2023-02-26T05:27:44;100660.41;;;10.81;100.00
12897;BME280;6516;35.028;32.372;2023-02-26T05:30:13;100655.84;;;10.98;100.00
12897;BME280;6516;35.028;32.372;2023-02-26T05:32:42;100661.72;;;11.19;100.00
12897;BME280;6516;35.028;32.372;2023-02-26T05:35:10;100667.66;;;11.40;100.00
12897;BME280;6516;35.028;32.372;2023-02-26T05:37:38;100665.66;;;11.57;100.00
12897;BME280;6516;35.028;32.372;2023-02-26T05:40:10;100668.09;;;11.75;100.00
12897;BME280;6516;35.028;32.372;2023-02-26T05:42:39;100671.25;;;11.98;100.00
12897;BME280;6516;35.028;32.372;2023-02-26T05:45:09;100668.19;;;12.25;100.00
12897;BME280;6516;35.028;32.372;2023-02-26T05:47:37;100671.50;;;12.36;100.00
12897;BME280;6516;35.028;32.372;2023-02-26T05:50:06;100676.47;;;12.54;100.00
12897;BME280;6516;35.028;32.372;2023-02-26T05:52:34;100674.31;;;12.75;100.00
12897;BME280;6516;35.028;32.372;2023-02-26T05:55:03;100673.00;;;13.00;100.00
12897;BME280;6516;35.028;32.372;2023-02-26T05:57:31;100676.81;;;13.30;100.00
12897;BME280;6516;35.028;32.372;2023-02-26T05:59:59;100672.81;;;13.53;100.00
12897;BME280;6516;35.028;32.372;2023-02-26T06:02:28;100682.72;;;13.82;100.00
12897;BME280;6516;35.028;32.372;2023-02-26T06:04:56;100677.44;;;14.21;100.00
12897;BME280;6516;35.028;32.372;2023-02-26T06:07:24;100681.09;;;14.51;100.00
12897;BME280;6516;35.028;32.372;2023-02-26T06:09:52;100680.03;;;14.90;100.00
12897;BME280;6516;35.028;32.372;2023-02-26T06:12:20;100676.56;;;15.20;100.00
12897;BME280;6516;35.028;32.372;2023-02-26T06:14:47;100679.31;;;15.47;97.94
12897;BME280;6516;35.028;32.372;2023-02-26T06:17:16;100690.13;;;15.70;94.52
12897;BME280;6516;35.028;32.372;2023-02-26T06:19:45;100682.88;;;16.04;94.15
12897;BME280;6516;35.028;32.372;2023-02-26T06:22:13;100682.03;;;16.30;89.04
12897;BME280;6516;35.028;32.372;2023-02-26T06:24:41;100683.72;;;16.60;85.83
12897;BME280;6516;35.028;32.372;2023-02-26T06:27:08;100680.00;;;16.90;84.14
12897;BME280;6516;35.028;32.372;2023-02-26T06:29:36;100692.78;;;17.05;80.14
12897;BME280;6516;35.028;32.372;2023-02-26T06:32:04;100702.22;;;17.38;83.32
12897;BME280;6516;35.028;32.372;2023-02-26T06:34:32;100694.22;;;17.62;82.21
12897;BME280;6516;35.028;32.372;2023-02-26T06:37:01;100697.97;;;17.80;76.70
12897;BME280;6516;35.028;32.372;2023-02-26T06:39:29;100701.44;;;18.05;75.75
12897;BME280;6516;35.028;32.372;2023-02-26T06:41:57;100705.78;;;18.29;72.31
12897;BME280;6516;35.028;32.372;2023-02-26T06:44:25;100708.09;;;18.59;73.66
12897;BME280;6516;35.028;32.372;2023-02-26T06:46:52;100721.66;;;18.75;69.41
12897;BME280;6516;35.028;32.372;2023-02-26T06:49:20;100721.59;;;18.96;69.31
12897;BME280;6516;35.028;32.372;2023-02-26T06:51:48;100715.22;;;19.20;70.02
12897;BME280;6516;35.028;32.372;2023-02-26T06:54:17;100721.59;;;19.38;69.35
12897;BME280;6516;35.028;32.372;2023-02-26T06:56:45;100732.81;;;19.46;67.14
12897;BME280;6516;35.028;32.372;2023-02-26T06:59:12;100730.81;;;19.69;67.48
12897;BME280;6516;35.028;32.372;2023-02-26T07:01:40;100730.84;;;19.88;66.60
12897;BME280;6516;35.028;32.372;2023-02-26T07:04:08;100735.03;;;19.94;66.30
12897;BME280;6516;35.028;32.372;2023-02-26T07:06:36;100734.88;;;19.97;64.40
12897;BME280;6516;35.028;32.372;2023-02-26T07:09:04;100734.28;;;20.10;64.91
12897;BME280;6516;35.028;32.372;2023-02-26T07:11:33;100734.78;;;20.18;63.71
12897;BME280;6516;35.028;32.372;2023-02-26T07:14:01;100726.97;;;20.32;62.81
12897;BME280;6516;35.028;32.372;2023-02-26T07:16:29;100728.97;;;20.46;62.97
12897;BME280;6516;35.028;32.372;2023-02-26T07:18:56;100731.91;;;20.58;61.48
12897;BME280;6516;35.028;32.372;2023-02-26T07:21:24;100733.97;;;20.70;61.25
12897;BME280;6516;35.028;32.372;2023-02-26T07:23:53;100736.59;;;20.89;61.28
12897;BME280;6516;35.028;32.372;2023-02-26T07:26:21;100735.47;;;21.11;59.90
12897;BME280;6516;35.028;32.372;2023-02-26T07:28:50;100736.16;;;21.15;60.49
12897;BME280;6516;35.028;32.372;2023-02-26T07:31:18;100741.78;;;21.27;60.25
12897;BME280;6516;35.028;32.372;2023-02-26T07:33:46;100736.22;;;21.30;59.36
12897;BME280;6516;35.028;32.372;2023-02-26T07:36:14;100742.38;;;21.49;59.49
12897;BME280;6516;35.028;32.372;2023-02-26T07:38:42;100738.41;;;21.56;59.16
12897;BME280;6516;35.028;32.372;2023-02-26T07:41:10;100742.06;;;21.55;58.10
12897;BME280;6516;35.028;32.372;2023-02-26T07:43:38;100746.63;;;21.70;58.17
12897;BME280;6516;35.028;32.372;2023-02-26T07:46:07;100748.81;;;21.79;58.06
12897;BME280;6516;35.028;32.372;2023-02-26T07:48:35;100752.41;;;21.95;57.33
12897;BME280;6516;35.028;32.372;2023-02-26T07:51:03;100749.81;;;22.09;57.28
12897;BME280;6516;35.028;32.372;2023-02-26T07:53:32;100745.06;;;22.14;56.10
12897;BME280;6516;35.028;32.372;2023-02-26T07:56:00;100740.84;;;22.26;56.03
12897;BME280;6516;35.028;32.372;2023-02-26T07:58:28;100751.81;;;22.37;55.13
12897;BME280;6516;35.028;32.372;2023-02-26T08:00:57;100752.16;;;22.31;55.28
12897;BME280;6516;35.028;32.372;2023-02-26T08:03:26;100751.63;;;22.24;55.01
12897;BME280;6516;35.028;32.372;2023-02-26T08:05:54;100750.25;;;22.33;55.60
12897;BME280;6516;35.028;32.372;2023-02-26T08:08:21;100756.84;;;22.27;54.32
12897;BME280;6516;35.028;32.372;2023-02-26T08:10:49;100753.97;;;22.30;54.17
12897;BME280;6516;35.028;32.372;2023-02-26T08:13:17;100748.59;;;22.30;54.51
12897;BME280;6516;35.028;32.372;2023-02-26T08:15:46;100744.38;;;22.42;54.23
12897;BME280;6516;35.028;32.372;2023-02-26T08:18:14;100736.31;;;22.42;54.67
12897;BME280;6516;35.028;32.372;2023-02-26T08:20:43;100737.81;;;22.47;53.57
12897;BME280;6516;35.028;32.372;2023-02-26T08:23:11;100744.81;;;22.34;53.23
12897;BME280;6516;35.028;32.372;2023-02-26T08:25:39;100741.72;;;22.26;54.44
12897;BME280;6516;35.028;32.372;2023-02-26T08:28:07;100744.81;;;22.34;54.12
12897;BME280;6516;35.028;32.372;2023-02-26T08:30:34;100750.00;;;22.22;54.17
12897;BME280;6516;35.028;32.372;2023-02-26T08:33:02;100745.16;;;22.28;54.14
12897;BME280;6516;35.028;32.372;2023-02-26T08:35:30;100738.31;;;22.38;54.01
12897;BME280;6516;35.028;32.372;2023-02-26T08:37:59;100733.91;;;22.68;53.46
12897;BME280;6516;35.028;32.372;2023-02-26T08:40:27;100729.75;;;22.63;53.04
12897;BME280;6516;35.028;32.372;2023-02-26T08:42:55;100728.53;;;22.68;52.76
12897;BME280;6516;35.028;32.372;2023-02-26T08:45:23;100724.19;;;22.81;52.64
12897;BME280;6516;35.028;32.372;2023-02-26T08:47:50;100722.91;;;23.02;52.40
12897;BME280;6516;35.028;32.372;2023-02-26T08:50:20;100718.59;;;23.00;52.25
12897;BME280;6516;35.028;32.372;2023-02-26T08:52:47;100717.19;;;23.08;51.44
12897;BME280;6516;35.028;32.372;2023-02-26T08:55:17;100718.38;;;23.18;51.37
12897;BME280;6516;35.028;32.372;2023-02-26T08:57:44;100708.44;;;23.34;51.14
12897;BME280;6516;35.028;32.372;2023-02-26T09:00:13;100711.09;;;23.20;49.50
12897;BME280;6516;35.028;32.372;2023-02-26T09:02:43;100713.16;;;23.15;50.11
12897;BME280;6516;35.028;32.372;2023-02-26T09:05:11;100707.75;;;23.01;48.72
12897;BME280;6516;35.028;32.372;2023-02-26T09:07:39;100712.56;;;23.10;50.95
12897;BME280;6516;35.028;32.372;2023-02-26T09:10:09;100715.44;;;23.07;51.68
12897;BME280;6516;35.028;32.372;2023-02-26T09:12:39;100705.63;;;23.22;50.80
12897;BME280;6516;35.028;32.372;2023-02-26T09:15:08;100710.56;;;23.43;49.84
12897;BME280;6516;35.028;32.372;2023-02-26T09:17:37;100722.47;;;23.39;49.47
12897;BME280;6516;35.028;32.372;2023-02-26T09:20:06;100722.28;;;23.70;49.04
12897;BME280;6516;35.028;32.372;2023-02-26T09:22:35;100718.84;;;23.68;49.63
12897;BME280;6516;35.028;32.372;2023-02-26T09:25:03;100713.56;;;23.53;48.98
12897;BME280;6516;35.028;32.372;2023-02-26T09:27:32;100724.78;;;23.73;48.65
12897;BME280;6516;35.028;32.372;2023-02-26T09:30:02;100717.69;;;23.15;49.15
12897;BME280;6516;35.028;32.372;2023-02-26T09:32:30;100719.00;;;23.08;50.86
12897;BME280;6516;35.028;32.372;2023-02-26T09:34:57;100715.78;;;22.87;51.15
12897;BME280;6516;35.028;32.372;2023-02-26T09:37:25;100718.78;;;22.67;51.41
12897;BME280;6516;35.028;32.372;2023-02-26T09:39:53;100712.59;;;22.65;52.69
12897;BME280;6516;35.028;32.372;2023-02-26T09:42:32;100712.06;;;22.74;52.33
12897;BME280;6516;35.028;32.372;2023-02-26T09:45:16;100714.59;;;23.07;52.09
12897;BME280;6516;35.028;32.372;2023-02-26T09:47:50;100717.38;;;23.35;51.15
12897;BME280;6516;35.028;32.372;2023-02-26T09:50:23;100701.34;;;23.61;49.67
12897;BME280;6516;35.028;32.372;2023-02-26T09:52:57;100713.47;;;23.68;49.28
12897;BME280;6516;35.028;32.372;2023-02-26T09:55:30;100713.88;;;23.90;49.44
12897;BME280;6516;35.028;32.372;2023-02-26T09:58:02;100699.06;;;23.97;49.43
12897;BME280;6516;35.028;32.372;2023-02-26T10:00:36;100697.41;;;24.09;49.11
12897;BME280;6516;35.028;32.372;2023-02-26T10:03:17;100695.41;;;24.12;47.48
12897;BME280;6516;35.028;32.372;2023-02-26T10:09:00;100692.19;;;24.34;47.38
12897;BME280;6516;35.028;32.372;2023-02-26T10:11:42;100685.22;;;24.17;48.48
12897;BME280;6516;35.028;32.372;2023-02-26T10:14:17;100688.13;;;24.00;49.24
12897;BME280;6516;35.028;32.372;2023-02-26T10:16:53;100679.84;;;24.17;48.60
12897;BME280;6516;35.028;32.372;2023-02-26T10:19:27;100670.72;;;24.06;48.28
12897;BME280;6516;35.028;32.372;2023-02-26T10:22:02;100672.31;;;24.22;48.66
12897;BME280;6516;35.028;32.372;2023-02-26T10:24:39;100662.84;;;24.29;49.57
12897;BME280;6516;35.028;32.372;2023-02-26T10:27:12;100663.81;;;24.02;48.98
12897;BME280;6516;35.028;32.372;2023-02-26T10:29:46;100667.94;;;23.93;48.12
12897;BME280;6516;35.028;32.372;2023-02-26T10:32:25;100676.47;;;23.72;49.62
12897;BME280;6516;35.028;32.372;2023-02-26T10:34:58;100671.97;;;23.72;49.93
12897;BME280;6516;35.028;32.372;2023-02-26T10:37:37;100668.41;;;23.86;50.33
12897;BME280;6516;35.028;32.372;2023-02-26T10:40:13;100661.03;;;23.89;49.47
12897;BME280;6516;35.028;32.372;2023-02-26T10:42:47;100660.34;;;24.00;47.28
12897;BME280;6516;35.028;32.372;2023-02-26T10:45:29;100657.63;;;24.14;48.54
12897;BME280;6516;35.028;32.372;2023-02-26T10:48:16;100654.22;;;24.24;48.79
12897;BME280;6516;35.028;32.372;2023-02-26T10:50:55;100650.59;;;24.11;46.48
12897;BME280;6516;35.028;32.372;2023-02-26T10:53:25;100641.19;;;24.18;47.15
12897;BME280;6516;35.028;32.372;2023-02-26T10:56:04;100645.91;;;24.15;49.06
12897;BME280;6516;35.028;32.372;2023-02-26T10:58:34;100652.13;;;24.15;48.25
12897;BME280;6516;35.028;32.372;2023-02-26T11:01:06;100648.81;;;23.98;49.96
12897;BME280;6516;35.028;32.372;2023-02-26T11:03:42;100658.44;;;24.02;48.25
12897;BME280;6516;35.028;32.372;2023-02-26T11:06:23;100663.06;;;24.26;47.15
12897;BME280;6516;35.028;32.372;2023-02-26T11:08:56;100653.63;;;24.33;44.37
12897;BME280;6516;35.028;32.372;2023-02-26T11:11:35;100657.13;;;24.48;45.81
12897;BME280;6516;35.028;32.372;2023-02-26T11:14:07;100660.09;;;24.57;45.01
12897;BME280;6516;35.028;32.372;2023-02-26T11:16:41;100660.78;;;24.61;44.60
12897;BME280;6516;35.028;32.372;2023-02-26T11:19:16;100650.34;;;24.55;45.57
12897;BME280;6516;35.028;32.372;2023-02-26T11:21:46;100649.91;;;24.22;46.60
12897;BME280;6516;35.028;32.372;2023-02-26T11:24:28;100648.59;;;23.87;48.04
12897;BME280;6516;35.028;32.372;2023-02-26T11:26:59;100661.81;;;23.35;52.03
12897;BME280;6516;35.028;32.372;2023-02-26T11:29:35;100657.00;;;23.54;52.40
12897;BME280;6516;35.028;32.372;2023-02-26T11:32:05;100649.50;;;23.31;52.83
12897;BME280;6516;35.028;32.372;2023-02-26T11:34:45;100651.41;;;23.43;53.61
12897;BME280;6516;35.028;32.372;2023-02-26T11:37:17;100643.94;;;23.48;53.62
12897;BME280;6516;35.028;32.372;2023-02-26T11:39:55;100647.41;;;23.50;52.80
12897;BME280;6516;35.028;32.372;2023-02-26T11:42:25;100644.06;;;23.33;52.43
12897;BME280;6516;35.028;32.372;2023-02-26T11:44:56;100645.47;;;22.95;54.31
12897;BME280;6516;35.028;32.372;2023-02-26T11:47:27;100651.09;;;22.76;55.36
12897;BME280;6516;35.028;32.372;2023-02-26T11:50:01;100653.53;;;22.65;54.35
12897;BME280;6516;35.028;32.372;2023-02-26T11:52:33;100657.28;;;22.63;55.28
12897;BME280;6516;35.028;32.372;2023-02-26T11:55:04;100659.16;;;22.47;55.79
12897;BME280;6516;35.028;32.372;2023-02-26T11:57:44;100661.38;;;22.54;55.41
12897;BME280;6516;35.028;32.372;2023-02-26T12:00:19;100656.25;;;22.50;53.64
12897;BME280;6516;35.028;32.372;2023-02-26T12:02:50;100658.41;;;22.43;54.09
12897;BME280;6516;35.028;32.372;2023-02-26T12:05:19;100650.22;;;22.46;54.43
12897;BME280;6516;35.028;32.372;2023-02-26T12:07:47;100658.94;;;22.34;55.81
12897;BME280;6516;35.028;32.372;2023-02-26T12:10:17;100651.31;;;22.42;55.16
12897;BME280;6516;35.028;32.372;2023-02-26T12:13:00;100663.19;;;22.38;56.73
12897;BME280;6516;35.028;32.372;2023-02-26T12:15:37;100653.91;;;22.59;55.36
12897;BME280;6516;35.028;32.372;2023-02-26T12:21:16;100658.78;;;22.37;55.70
12897;BME280;6516;35.028;32.372;2023-02-26T12:27:25;100665.69;;;21.79;57.61
12897;BME280;6516;35.028;32.372;2023-02-26T12:30:09;100668.06;;;21.68;58.24
12897;BME280;6516;35.028;32.372;2023-02-26T12:33:01;100672.91;;;21.62;58.59
12897;BME280;6516;35.028;32.372;2023-02-26T12:35:50;100667.25;;;21.83;58.14
12897;BME280;6516;35.028;32.372;2023-02-26T12:38:35;100653.94;;;21.97;57.75
12897;BME280;6516;35.028;32.372;2023-02-26T12:41:22;100655.13;;;21.92;57.40
12897;BME280;6516;35.028;32.372;2023-02-26T12:43:55;100665.41;;;21.68;58.42
12897;BME280;6516;35.028;32.372;2023-02-26T12:46:36;100660.03;;;21.68;58.16
12897;BME280;6516;35.028;32.372;2023-02-26T12:49:38;100665.59;;;21.48;58.68
12897;BME280;6516;35.028;32.372;2023-02-26T12:52:37;100665.84;;;21.44;58.88
12897;BME280;6516;35.028;32.372;2023-02-26T12:55:22;100667.44;;;21.48;59.59
12897;BME280;6516;35.028;32.372;2023-02-26T12:58:16;100665.78;;;21.45;60.13
12897;BME280;6516;35.028;32.372;2023-02-26T13:01:23;100661.06;;;21.66;59.70
12897;BME280;6516;35.028;32.372;2023-02-26T13:07:51;100665.59;;;21.48;59.81
12897;BME280;6516;35.028;32.372;2023-02-26T13:10:31;100661.50;;;21.58;59.94
12897;BME280;6516;35.028;32.372;2023-02-26T13:13:20;100665.06;;;21.42;60.48
12897;BME280;6516;35.028;32.372;2023-02-26T13:16:14;100668.78;;;21.39;59.52
12897;BME280;6516;35.028;32.372;2023-02-26T13:18:55;100659.63;;;21.43;59.99
12897;BME280;6516;35.028;32.372;2023-02-26T13:21:30;100668.28;;;21.48;60.71
12897;BME280;6516;35.028;32.372;2023-02-26T13:24:04;100667.06;;;21.71;59.22
12897;BME280;6516;35.028;32.372;2023-02-26T13:26:35;100665.47;;;21.67;60.57
12897;BME280;6516;35.028;32.372;2023-02-26T13:29:07;100654.38;;;21.57;61.11
12897;BME280;6516;35.028;32.372;2023-02-26T13:31:41;100657.25;;;21.54;61.39
12897;BME280;6516;35.028;32.372;2023-02-26T13:34:13;100671.94;;;21.30;61.11